createdAt,value
2018-02-23T00:00:06.987Z,0
2018-02-23T00:01:16.716Z,0
2018-02-23T00:02:26.467Z,0
2018-02-23T00:03:35.384Z,0
2018-02-23T00:04:44.844Z,0
2018-02-23T00:05:54.935Z,0
2018-02-23T00:07:04.928Z,0
2018-02-23T00:08:14.401Z,0
2018-02-23T00:09:23.990Z,0
2018-02-23T00:10:35.203Z,0
2018-02-23T00:11:44.960Z,0
2018-02-23T00:12:55.142Z,0
2018-02-23T00:14:04.405Z,0
2018-02-23T00:15:14.477Z,0
2018-02-23T00:16:23.973Z,0
2018-02-23T00:17:33.829Z,0
2018-02-23T00:18:43.287Z,0
2018-02-23T00:19:53.026Z,0
2018-02-23T00:21:02.472Z,0
2018-02-23T00:22:12.464Z,0
2018-02-23T00:23:21.742Z,0
2018-02-23T00:24:31.794Z,0
2018-02-23T00:25:41.657Z,0
2018-02-23T00:26:51.375Z,0
2018-02-23T00:28:01.103Z,0
2018-02-23T00:29:10.966Z,0
2018-02-23T00:30:20.722Z,0
2018-02-23T00:31:30.208Z,0
2018-02-23T00:32:39.555Z,0
2018-02-23T00:33:49.274Z,0
2018-02-23T00:34:59.339Z,0
2018-02-23T00:36:08.926Z,0
2018-02-23T00:37:18.838Z,0
2018-02-23T00:38:28.602Z,0
2018-02-23T00:39:38.840Z,0
2018-02-23T00:40:49.422Z,0
2018-02-23T00:41:58.847Z,0
2018-02-23T00:43:08.348Z,0
2018-02-23T00:44:18.086Z,0
2018-02-23T00:45:28.071Z,0
2018-02-23T00:46:38.124Z,0
2018-02-23T00:47:48.350Z,0
2018-02-23T00:48:58.115Z,0
2018-02-23T00:50:07.296Z,0
2018-02-23T00:51:16.814Z,0
2018-02-23T00:52:26.564Z,0
2018-02-23T00:53:36.030Z,0
2018-02-23T00:54:45.208Z,0
2018-02-23T00:55:54.925Z,0
2018-02-23T00:57:04.656Z,0
2018-02-23T00:58:13.888Z,0
2018-02-23T00:59:23.395Z,0
2018-02-23T01:00:33.398Z,0
2018-02-23T01:01:43.378Z,0
2018-02-23T01:02:52.830Z,0
2018-02-23T01:04:02.284Z,0
2018-02-23T01:05:11.595Z,0
2018-02-23T01:06:21.579Z,0
2018-02-23T01:07:31.025Z,0
2018-02-23T01:08:41.296Z,0
2018-02-23T01:09:51.096Z,0
2018-02-23T01:11:00.817Z,0
2018-02-23T01:12:10.273Z,0
2018-02-23T01:13:19.737Z,0
2018-02-23T01:14:29.458Z,0
2018-02-23T01:15:39.509Z,0
2018-02-23T01:16:48.696Z,0
2018-02-23T01:17:58.684Z,0
2018-02-23T01:19:08.493Z,0
2018-02-23T01:20:17.676Z,0
2018-02-23T01:21:27.393Z,0
2018-02-23T01:22:37.104Z,0
2018-02-23T01:23:46.560Z,0
2018-02-23T01:24:55.737Z,0
2018-02-23T01:26:04.931Z,0
2018-02-23T01:27:14.390Z,0
2018-02-23T01:28:24.368Z,0
2018-02-23T01:29:33.560Z,0
2018-02-23T01:30:43.560Z,0
2018-02-23T01:31:53.539Z,0
2018-02-23T01:33:03.525Z,0
2018-02-23T01:34:13.234Z,0
2018-02-23T01:35:23.226Z,0
2018-02-23T01:36:33.066Z,0
2018-02-23T01:37:42.778Z,0
2018-02-23T01:38:52.233Z,0
2018-02-23T01:40:01.962Z,0
2018-02-23T01:41:11.683Z,0
2018-02-23T01:42:20.869Z,0
2018-02-23T01:43:30.317Z,0
2018-02-23T01:44:40.092Z,0
2018-02-23T01:45:50.078Z,0
2018-02-23T01:46:59.825Z,0
2018-02-23T01:48:09.289Z,0
2018-02-23T01:49:18.737Z,0
2018-02-23T01:50:28.452Z,0
2018-02-23T01:51:38.433Z,0
2018-02-23T01:52:48.418Z,0
2018-02-23T01:53:58.128Z,0
2018-02-23T01:55:07.578Z,0
2018-02-23T01:56:17.352Z,0
2018-02-23T01:57:26.800Z,0
2018-02-23T01:58:36.787Z,0
2018-02-23T01:59:46.503Z,0
2018-02-23T02:00:56.480Z,0
2018-02-23T02:02:06.025Z,0
2018-02-23T02:03:15.474Z,0
2018-02-23T02:04:25.454Z,0
2018-02-23T02:05:35.184Z,0
2018-02-23T02:06:44.912Z,0
2018-02-23T02:07:54.383Z,0
2018-02-23T02:09:04.109Z,0
2018-02-23T02:10:14.094Z,0
2018-02-23T02:11:24.081Z,0
2018-02-23T02:12:33.805Z,0
2018-02-23T02:13:43.251Z,0
2018-02-23T02:14:52.969Z,0
2018-02-23T02:16:02.683Z,0
2018-02-23T02:17:12.140Z,0
2018-02-23T02:18:21.877Z,0
2018-02-23T02:19:31.860Z,0
2018-02-23T02:20:41.588Z,0
2018-02-23T02:21:51.575Z,0
2018-02-23T02:23:01.553Z,0
2018-02-23T02:24:11.535Z,0
2018-02-23T02:25:21.519Z,0
2018-02-23T02:26:31.528Z,0
2018-02-23T02:27:41.262Z,0
2018-02-23T02:28:50.451Z,0
2018-02-23T02:29:59.908Z,0
2018-02-23T02:31:09.889Z,0
2018-02-23T02:32:19.607Z,0
2018-02-23T02:33:29.071Z,0
2018-02-23T02:34:39.060Z,0
2018-02-23T02:35:48.797Z,0
2018-02-23T02:36:58.801Z,0
2018-02-23T02:38:08.555Z,0
2018-02-23T02:39:17.743Z,0
2018-02-23T02:40:27.467Z,0
2018-02-23T02:41:37.458Z,0
2018-02-23T02:42:46.928Z,0
2018-02-23T02:43:56.650Z,0
2018-02-23T02:45:06.705Z,0
2018-02-23T02:46:16.432Z,0
2018-02-23T02:47:26.521Z,0
2018-02-23T02:48:36.025Z,0
2018-02-23T02:49:46.045Z,0
2018-02-23T02:50:55.769Z,0
2018-02-23T02:52:04.955Z,0
2018-02-23T02:53:14.979Z,0
2018-02-23T02:54:24.706Z,0
2018-02-23T02:55:34.184Z,0
2018-02-23T02:56:44.171Z,0
2018-02-23T02:57:54.160Z,0
2018-02-23T02:59:03.940Z,0
2018-02-23T03:00:13.667Z,0
2018-02-23T03:01:23.403Z,0
2018-02-23T03:02:33.457Z,0
2018-02-23T03:03:43.192Z,0
2018-02-23T03:04:52.929Z,0
2018-02-23T03:06:02.828Z,0
2018-02-23T03:07:12.384Z,0
2018-02-23T03:08:22.112Z,0
2018-02-23T03:09:31.561Z,0
2018-02-23T03:10:41.544Z,0
2018-02-23T03:11:51.417Z,0
2018-02-23T03:13:00.649Z,0
2018-02-23T03:14:10.360Z,0
2018-02-23T03:15:20.472Z,0
2018-02-23T03:16:30.198Z,0
2018-02-23T03:17:39.931Z,0
2018-02-23T03:18:49.940Z,0
2018-02-23T03:19:59.668Z,0
2018-02-23T03:21:09.689Z,0
2018-02-23T03:22:19.418Z,0
2018-02-23T03:23:29.141Z,0
2018-02-23T03:24:39.162Z,0
2018-02-23T03:25:48.885Z,0
2018-02-23T03:26:59.002Z,0
2018-02-23T03:28:09.030Z,0
2018-02-23T03:29:18.492Z,0
2018-02-23T03:30:28.272Z,0
2018-02-23T03:31:38.026Z,0
2018-02-23T03:32:47.748Z,0
2018-02-23T03:33:57.742Z,0
2018-02-23T03:35:07.195Z,0
2018-02-23T03:36:16.948Z,0
2018-02-23T03:37:26.673Z,0
2018-02-23T03:38:35.872Z,0
2018-02-23T03:39:45.599Z,0
2018-02-23T03:40:55.341Z,0
2018-02-23T03:42:05.063Z,0
2018-02-23T03:43:15.051Z,0
2018-02-23T03:44:24.771Z,0
2018-02-23T03:45:34.495Z,0
2018-02-23T03:46:43.956Z,0
2018-02-23T03:47:53.960Z,0
2018-02-23T03:49:03.952Z,0
2018-02-23T03:50:13.937Z,0
2018-02-23T03:51:23.926Z,0
2018-02-23T03:52:33.379Z,0
2018-02-23T03:53:42.835Z,0
2018-02-23T03:54:52.020Z,0
2018-02-23T03:56:01.739Z,0
2018-02-23T03:57:11.741Z,0
2018-02-23T03:58:21.457Z,0
2018-02-23T03:59:30.906Z,0
2018-02-23T04:00:40.621Z,0
2018-02-23T04:01:50.615Z,0
2018-02-23T04:03:00.604Z,0
2018-02-23T04:04:10.325Z,0
2018-02-23T04:05:20.421Z,0
2018-02-23T04:06:30.218Z,0
2018-02-23T04:07:39.412Z,0
2018-02-23T04:08:48.870Z,0
2018-02-23T04:09:58.861Z,0
2018-02-23T04:11:08.073Z,0
2018-02-23T04:12:18.082Z,0
2018-02-23T04:13:27.556Z,0
2018-02-23T04:14:37.296Z,0
2018-02-23T04:15:47.033Z,0
2018-02-23T04:16:56.217Z,0
2018-02-23T04:18:05.940Z,0
2018-02-23T04:19:15.391Z,0
2018-02-23T04:20:25.375Z,0
2018-02-23T04:21:34.836Z,0
2018-02-23T04:22:44.828Z,0
2018-02-23T04:23:54.540Z,0
2018-02-23T04:25:04.524Z,0
2018-02-23T04:26:14.025Z,0
2018-02-23T04:27:24.016Z,0
2018-02-23T04:28:33.772Z,0
2018-02-23T04:29:43.206Z,0
2018-02-23T04:30:53.244Z,0
2018-02-23T04:32:02.445Z,0
2018-02-23T04:33:12.436Z,0
2018-02-23T04:34:21.904Z,0
2018-02-23T04:35:31.900Z,0
2018-02-23T04:36:41.636Z,0
2018-02-23T04:37:51.367Z,0
2018-02-23T04:39:01.359Z,0
2018-02-23T04:40:10.818Z,0
2018-02-23T04:41:20.580Z,0
2018-02-23T04:42:30.042Z,0
2018-02-23T04:43:40.050Z,0
2018-02-23T04:44:49.804Z,0
2018-02-23T04:45:59.523Z,0
2018-02-23T04:47:09.512Z,0
2018-02-23T04:48:18.966Z,0
2018-02-23T04:49:28.428Z,0
2018-02-23T04:50:38.440Z,0
2018-02-23T04:51:48.431Z,0
2018-02-23T04:52:58.207Z,0
2018-02-23T04:54:07.415Z,0
2018-02-23T04:55:17.494Z,0
2018-02-23T04:56:27.481Z,0
2018-02-23T04:57:36.668Z,0
2018-02-23T04:58:46.186Z,0
2018-02-23T04:59:55.931Z,0
2018-02-23T05:01:05.422Z,0
2018-02-23T05:02:14.915Z,0
2018-02-23T05:03:25.039Z,0
2018-02-23T05:04:34.787Z,0
2018-02-23T05:05:44.544Z,0
2018-02-23T05:06:54.541Z,0
2018-02-23T05:08:04.298Z,0
2018-02-23T05:09:14.025Z,0
2018-02-23T05:10:23.748Z,0
2018-02-23T05:11:33.496Z,0
2018-02-23T05:12:43.222Z,0
2018-02-23T05:13:52.446Z,0
2018-02-23T05:15:01.900Z,0
2018-02-23T05:16:11.644Z,0
2018-02-23T05:17:21.635Z,0
2018-02-23T05:18:30.827Z,0
2018-02-23T05:19:40.889Z,0
2018-02-23T05:20:50.608Z,0
2018-02-23T05:22:00.604Z,0
2018-02-23T05:23:10.334Z,0
2018-02-23T05:24:19.839Z,0
2018-02-23T05:25:29.619Z,0
2018-02-23T05:26:39.373Z,0
2018-02-23T05:27:49.406Z,0
2018-02-23T05:28:59.390Z,0
2018-02-23T05:30:08.847Z,0
2018-02-23T05:31:18.613Z,0
2018-02-23T05:32:28.067Z,0
2018-02-23T05:33:38.328Z,0
2018-02-23T05:34:47.598Z,0
2018-02-23T05:35:57.588Z,0
2018-02-23T05:37:07.308Z,0
2018-02-23T05:38:17.075Z,0
2018-02-23T05:39:26.796Z,0
2018-02-23T05:40:36.247Z,0
2018-02-23T05:41:45.728Z,0
2018-02-23T05:42:55.175Z,0
2018-02-23T05:44:04.959Z,0
2018-02-23T05:45:14.342Z,0
2018-02-23T05:46:23.793Z,0
2018-02-23T05:47:32.716Z,0
2018-02-23T05:48:42.429Z,0
2018-02-23T05:49:51.944Z,0
2018-02-23T05:51:01.667Z,0
2018-02-23T05:52:11.425Z,0
2018-02-23T05:53:21.499Z,0
2018-02-23T05:54:31.229Z,0
2018-02-23T05:55:40.414Z,0
2018-02-23T05:56:49.663Z,0
2018-02-23T05:57:59.676Z,0
2018-02-23T05:59:09.703Z,0
2018-02-23T06:00:19.688Z,0
2018-02-23T06:01:29.158Z,0
2018-02-23T06:02:38.878Z,0
2018-02-23T06:03:48.336Z,0
2018-02-23T06:04:57.854Z,0
2018-02-23T06:06:07.304Z,0
2018-02-23T06:07:17.049Z,0
2018-02-23T06:08:26.863Z,0
2018-02-23T06:09:36.353Z,0
2018-02-23T06:10:46.332Z,0
2018-02-23T06:11:56.412Z,0
2018-02-23T06:13:05.869Z,0
2018-02-23T06:14:15.193Z,0
2018-02-23T06:15:24.650Z,0
2018-02-23T06:16:34.672Z,0
2018-02-23T06:17:44.119Z,0
2018-02-23T06:18:53.300Z,0
2018-02-23T06:20:02.591Z,0
2018-02-23T06:21:12.416Z,0
2018-02-23T06:22:22.410Z,0
2018-02-23T06:23:32.197Z,0
2018-02-23T06:24:41.656Z,0
2018-02-23T06:25:50.887Z,0
2018-02-23T06:27:00.604Z,0
2018-02-23T06:28:10.332Z,0
2018-02-23T06:29:20.328Z,0
2018-02-23T06:30:29.788Z,0
2018-02-23T06:31:39.531Z,5
2018-02-23T06:32:48.725Z,5
2018-02-23T06:33:58.750Z,5
2018-02-23T06:35:08.250Z,5
2018-02-23T06:36:17.963Z,5
2018-02-23T06:37:27.719Z,5
2018-02-23T06:38:37.854Z,5
2018-02-23T06:39:47.837Z,5
2018-02-23T06:40:57.643Z,10
2018-02-23T06:42:07.656Z,10
2018-02-23T06:43:17.652Z,10
2018-02-23T06:44:27.160Z,10
2018-02-23T06:45:36.959Z,10
2018-02-23T06:46:46.698Z,10
2018-02-23T06:47:56.153Z,15
2018-02-23T06:49:06.164Z,15
2018-02-23T06:50:16.159Z,15
2018-02-23T06:51:25.875Z,15
2018-02-23T06:52:35.912Z,15
2018-02-23T06:53:45.097Z,15
2018-02-23T06:54:54.938Z,20
2018-02-23T06:56:03.936Z,20
2018-02-23T06:57:13.398Z,20
2018-02-23T06:58:23.112Z,20
2018-02-23T06:59:32.616Z,20
2018-02-23T07:00:42.423Z,20
2018-02-23T07:01:51.605Z,25
2018-02-23T07:03:01.092Z,25
2018-02-23T07:04:10.836Z,25
2018-02-23T07:05:20.914Z,25
2018-02-23T07:06:30.906Z,25
2018-02-23T07:07:40.244Z,25
2018-02-23T07:08:49.483Z,30
2018-02-23T07:09:59.208Z,30
2018-02-23T07:11:08.897Z,30
2018-02-23T07:12:18.211Z,30
2018-02-23T07:13:27.766Z,30
2018-02-23T07:14:37.326Z,30
2018-02-23T07:15:46.858Z,30
2018-02-23T07:16:55.856Z,35
2018-02-23T07:18:05.440Z,35
2018-02-23T07:19:14.675Z,35
2018-02-23T07:20:24.497Z,35
2018-02-23T07:21:33.823Z,35
2018-02-23T07:22:43.162Z,35
2018-02-23T07:23:52.699Z,40
2018-02-23T07:25:02.379Z,40
2018-02-23T07:26:12.229Z,40
2018-02-23T07:27:21.214Z,40
2018-02-23T07:28:30.748Z,40
2018-02-23T07:29:40.256Z,40
2018-02-23T07:30:49.794Z,40
2018-02-23T07:31:59.384Z,45
2018-02-23T07:33:08.912Z,45
2018-02-23T07:34:18.695Z,45
2018-02-23T07:35:28.216Z,45
2018-02-23T07:36:38.000Z,45
2018-02-23T07:37:47.718Z,45
2018-02-23T07:38:56.995Z,45
2018-02-23T07:40:05.939Z,45
2018-02-23T07:41:15.714Z,45
2018-02-23T07:42:25.231Z,50
2018-02-23T07:43:34.916Z,50
2018-02-23T07:44:44.864Z,50
2018-02-23T07:45:54.590Z,50
2018-02-23T07:47:04.093Z,50
2018-02-23T07:48:13.019Z,50
2018-02-23T07:49:22.910Z,50
2018-02-23T07:50:32.940Z,50
2018-02-23T07:51:41.906Z,50
2018-02-23T07:52:51.114Z,55
2018-02-23T07:54:00.578Z,55
2018-02-23T07:55:10.320Z,55
2018-02-23T07:56:20.488Z,55
2018-02-23T07:57:29.978Z,55
2018-02-23T07:58:39.816Z,55
2018-02-23T07:59:49.291Z,55
2018-02-23T08:00:59.307Z,55
2018-02-23T08:02:09.448Z,60
2018-02-23T08:03:19.252Z,60
2018-02-23T08:04:29.269Z,60
2018-02-23T08:05:38.200Z,60
2018-02-23T08:06:47.415Z,60
2018-02-23T08:07:57.316Z,60
2018-02-23T08:09:06.840Z,60
2018-02-23T08:10:16.923Z,60
2018-02-23T08:11:26.379Z,60
2018-02-23T08:12:35.844Z,60
2018-02-23T08:13:45.300Z,60
2018-02-23T08:14:55.294Z,60
2018-02-23T08:16:04.803Z,60
2018-02-23T08:17:13.994Z,65
2018-02-23T08:18:23.979Z,65
2018-02-23T08:19:33.700Z,65
2018-02-23T08:20:42.895Z,65
2018-02-23T08:21:53.038Z,65
2018-02-23T08:23:02.221Z,65
2018-02-23T08:24:11.733Z,65
2018-02-23T08:25:20.926Z,65
2018-02-23T08:26:30.460Z,65
2018-02-23T08:27:40.405Z,65
2018-02-23T08:28:49.957Z,65
2018-02-23T08:29:59.470Z,65
2018-02-23T08:31:08.928Z,65
2018-02-23T08:32:18.398Z,65
2018-02-23T08:33:27.854Z,65
2018-02-23T08:34:37.970Z,65
2018-02-23T08:35:46.933Z,65
2018-02-23T08:36:56.136Z,65
2018-02-23T08:38:05.323Z,65
2018-02-23T08:39:14.512Z,65
2018-02-23T08:40:23.702Z,70
2018-02-23T08:41:33.448Z,70
2018-02-23T08:42:42.990Z,70
2018-02-23T08:43:53.041Z,70
2018-02-23T08:45:02.544Z,70
2018-02-23T08:46:12.139Z,70
2018-02-23T08:47:21.025Z,70
2018-02-23T08:48:30.745Z,70
2018-02-23T08:49:40.601Z,70
2018-02-23T08:50:50.176Z,70
2018-02-23T08:51:59.694Z,70
2018-02-23T08:53:09.147Z,70
2018-02-23T08:54:18.369Z,70
2018-02-23T08:55:28.089Z,70
2018-02-23T08:56:37.597Z,70
2018-02-23T08:57:47.366Z,70
2018-02-23T08:58:56.561Z,70
2018-02-23T09:00:06.276Z,70
2018-02-23T09:01:15.823Z,70
2018-02-23T09:02:25.491Z,70
2018-02-23T09:03:35.532Z,70
2018-02-23T09:04:44.815Z,70
2018-02-23T09:05:54.603Z,70
2018-02-23T09:07:04.617Z,75
2018-02-23T09:08:14.613Z,75
2018-02-23T09:09:23.919Z,75
2018-02-23T09:10:33.785Z,75
2018-02-23T09:11:43.646Z,75
2018-02-23T09:12:53.399Z,75
2018-02-23T09:14:03.130Z,75
2018-02-23T09:15:12.747Z,75
2018-02-23T09:16:22.267Z,75
2018-02-23T09:17:31.547Z,75
2018-02-23T09:18:40.847Z,75
2018-02-23T09:19:50.242Z,75
2018-02-23T09:21:00.265Z,75
2018-02-23T09:22:10.456Z,75
2018-02-23T09:23:20.634Z,75
2018-02-23T09:24:31.154Z,80
2018-02-23T09:25:40.608Z,80
2018-02-23T09:26:50.455Z,80
2018-02-23T09:28:00.200Z,80
2018-02-23T09:29:10.062Z,85
2018-02-23T09:30:19.515Z,85
2018-02-23T09:31:29.195Z,85
2018-02-23T09:32:38.646Z,85
2018-02-23T09:33:48.102Z,85
2018-02-23T09:34:58.132Z,85
2018-02-23T09:36:07.854Z,85
2018-02-23T09:37:17.577Z,85
2018-02-23T09:38:27.569Z,85
2018-02-23T09:39:37.309Z,85
2018-02-23T09:40:47.036Z,85
2018-02-23T09:41:57.035Z,85
2018-02-23T09:43:06.766Z,85
2018-02-23T09:44:16.017Z,85
2018-02-23T09:45:25.743Z,85
2018-02-23T09:46:35.107Z,80
2018-02-23T09:47:44.665Z,80
2018-02-23T09:48:53.979Z,85
2018-02-23T09:50:03.468Z,85
2018-02-23T09:51:12.925Z,85
2018-02-23T09:52:22.124Z,85
2018-02-23T09:53:32.138Z,90
2018-02-23T09:54:41.055Z,90
2018-02-23T09:55:50.517Z,90
2018-02-23T09:56:59.966Z,90
2018-02-23T09:58:09.160Z,90
2018-02-23T09:59:18.887Z,90
2018-02-23T10:00:28.891Z,90
2018-02-23T10:01:38.449Z,90
2018-02-23T10:02:48.188Z,90
2018-02-23T10:03:57.676Z,90
2018-02-23T10:05:06.848Z,90
2018-02-23T10:06:16.073Z,90
2018-02-23T10:07:26.065Z,90
2018-02-23T10:08:35.571Z,90
2018-02-23T10:09:45.341Z,90
2018-02-23T10:10:55.012Z,90
2018-02-23T10:12:04.205Z,90
2018-02-23T10:13:13.126Z,95
2018-02-23T10:14:22.662Z,90
2018-02-23T10:15:32.413Z,95
2018-02-23T10:16:42.421Z,95
2018-02-23T10:17:52.025Z,95
2018-02-23T10:19:01.911Z,95
2018-02-23T10:20:10.832Z,95
2018-02-23T10:21:20.215Z,95
2018-02-23T10:22:29.741Z,95
2018-02-23T10:23:39.706Z,95
2018-02-23T10:24:49.226Z,95
2018-02-23T10:25:58.748Z,95
2018-02-23T10:27:08.355Z,95
2018-02-23T10:28:18.091Z,95
2018-02-23T10:29:27.854Z,95
2018-02-23T10:30:37.580Z,95
2018-02-23T10:31:46.981Z,95
2018-02-23T10:32:56.483Z,95
2018-02-23T10:34:06.018Z,95
2018-02-23T10:35:16.003Z,95
2018-02-23T10:36:25.462Z,95
2018-02-23T10:37:35.539Z,95
2018-02-23T10:38:45.111Z,95
2018-02-23T10:39:54.831Z,95
2018-02-23T10:41:04.299Z,95
2018-02-23T10:42:14.036Z,95
2018-02-23T10:43:23.487Z,100
2018-02-23T10:44:33.472Z,100
2018-02-23T10:45:43.226Z,100
2018-02-23T10:46:53.557Z,100
2018-02-23T10:48:02.746Z,100
2018-02-23T10:49:12.474Z,105
2018-02-23T10:50:21.938Z,105
2018-02-23T10:51:31.180Z,105
2018-02-23T10:52:40.923Z,105
2018-02-23T10:53:50.129Z,105
2018-02-23T10:54:59.310Z,105
2018-02-23T10:56:08.880Z,105
2018-02-23T10:57:18.387Z,105
2018-02-23T10:58:28.399Z,105
2018-02-23T10:59:38.214Z,105
2018-02-23T11:00:47.819Z,110
2018-02-23T11:01:57.321Z,110
2018-02-23T11:03:07.083Z,110
2018-02-23T11:04:17.101Z,110
2018-02-23T11:05:26.896Z,110
2018-02-23T11:06:36.619Z,110
2018-02-23T11:07:46.192Z,110
2018-02-23T11:08:55.677Z,115
2018-02-23T11:10:05.215Z,115
2018-02-23T11:11:14.480Z,115
2018-02-23T11:12:23.936Z,115
2018-02-23T11:13:33.527Z,115
2018-02-23T11:14:42.985Z,115
2018-02-23T11:15:52.802Z,115
2018-02-23T11:17:02.839Z,115
2018-02-23T11:18:12.648Z,115
2018-02-23T11:19:22.664Z,115
2018-02-23T11:20:32.716Z,115
2018-02-23T11:21:42.734Z,115
2018-02-23T11:22:52.344Z,120
2018-02-23T11:24:02.347Z,120
2018-02-23T11:25:11.538Z,120
2018-02-23T11:26:21.050Z,120
2018-02-23T11:27:30.794Z,120
2018-02-23T11:28:40.202Z,120
2018-02-23T11:29:49.683Z,120
2018-02-23T11:30:59.670Z,120
2018-02-23T11:32:09.125Z,120
2018-02-23T11:33:18.897Z,120
2018-02-23T11:34:28.952Z,120
2018-02-23T11:35:38.716Z,120
2018-02-23T11:36:48.442Z,120
2018-02-23T11:37:57.945Z,120
2018-02-23T11:39:07.429Z,120
2018-02-23T11:40:16.688Z,120
2018-02-23T11:41:26.168Z,120
2018-02-23T11:42:35.918Z,120
2018-02-23T11:43:45.778Z,120
2018-02-23T11:44:55.576Z,120
2018-02-23T11:46:05.610Z,120
2018-02-23T11:47:15.778Z,120
2018-02-23T11:48:25.516Z,120
2018-02-23T11:49:35.310Z,120
2018-02-23T11:50:44.793Z,120
2018-02-23T11:51:54.316Z,120
2018-02-23T11:53:03.838Z,120
2018-02-23T11:54:13.850Z,120
2018-02-23T11:55:23.040Z,120
2018-02-23T11:56:32.832Z,120
2018-02-23T11:57:42.330Z,120
2018-02-23T11:58:51.541Z,120
2018-02-23T12:00:01.009Z,120
2018-02-23T12:01:10.201Z,120
2018-02-23T12:02:20.194Z,120
2018-02-23T12:03:29.969Z,120
2018-02-23T12:04:39.498Z,120
2018-02-23T12:05:49.535Z,120
2018-02-23T12:06:59.050Z,120
2018-02-23T12:08:08.780Z,120
2018-02-23T12:09:18.796Z,120
2018-02-23T12:10:28.304Z,120
2018-02-23T12:11:38.036Z,120
2018-02-23T12:12:47.507Z,120
2018-02-23T12:13:57.530Z,120
2018-02-23T12:15:06.463Z,120
2018-02-23T12:16:16.140Z,120
2018-02-23T12:17:26.155Z,120
2018-02-23T12:18:34.947Z,120
2018-02-23T12:19:44.407Z,120
2018-02-23T12:20:53.896Z,120
2018-02-23T12:22:03.637Z,120
2018-02-23T12:23:12.830Z,120
2018-02-23T12:24:22.296Z,120
2018-02-23T12:25:32.299Z,120
2018-02-23T12:26:42.605Z,125
2018-02-23T12:27:52.441Z,125
2018-02-23T12:29:02.176Z,125
2018-02-23T12:30:11.917Z,125
2018-02-23T12:31:21.459Z,125
2018-02-23T12:32:30.704Z,125
2018-02-23T12:33:40.433Z,125
2018-02-23T12:34:49.926Z,130
2018-02-23T12:35:59.963Z,125
2018-02-23T12:37:09.438Z,125
2018-02-23T12:38:19.191Z,125
2018-02-23T12:39:28.648Z,125
2018-02-23T12:40:38.250Z,125
2018-02-23T12:41:47.775Z,125
2018-02-23T12:42:57.778Z,125
2018-02-23T12:44:07.284Z,125
2018-02-23T12:45:17.316Z,135
2018-02-23T12:46:27.080Z,130
2018-02-23T12:47:36.816Z,130
2018-02-23T12:48:46.841Z,130
2018-02-23T12:49:56.059Z,130
2018-02-23T12:51:05.545Z,130
2018-02-23T12:52:14.543Z,130
2018-02-23T12:53:24.006Z,130
2018-02-23T12:54:33.743Z,130
2018-02-23T12:55:43.212Z,130
2018-02-23T12:56:52.964Z,130
2018-02-23T12:58:02.511Z,130
2018-02-23T12:59:12.292Z,130
2018-02-23T13:00:21.496Z,135
2018-02-23T13:01:30.955Z,130
2018-02-23T13:02:40.977Z,130
2018-02-23T13:03:50.849Z,130
2018-02-23T13:05:00.378Z,135
2018-02-23T13:06:10.380Z,135
2018-02-23T13:07:19.887Z,135
2018-02-23T13:08:29.427Z,135
2018-02-23T13:09:39.202Z,135
2018-02-23T13:10:48.657Z,135
2018-02-23T13:11:58.482Z,135
2018-02-23T13:13:08.281Z,135
2018-02-23T13:14:18.032Z,135
2018-02-23T13:15:27.824Z,135
2018-02-23T13:16:37.880Z,135
2018-02-23T13:17:47.401Z,135
2018-02-23T13:18:57.137Z,135
2018-02-23T13:20:07.248Z,135
2018-02-23T13:21:17.022Z,135
2018-02-23T13:22:26.499Z,135
2018-02-23T13:23:35.431Z,135
2018-02-23T13:24:44.690Z,135
2018-02-23T13:25:54.763Z,135
2018-02-23T13:27:03.979Z,135
2018-02-23T13:28:13.202Z,135
2018-02-23T13:29:22.423Z,135
2018-02-23T13:30:32.193Z,135
2018-02-23T13:31:41.854Z,135
2018-02-23T13:32:51.069Z,135
2018-02-23T13:34:00.558Z,135
2018-02-23T13:35:09.482Z,135
2018-02-23T13:36:19.228Z,135
2018-02-23T13:37:28.974Z,135
2018-02-23T13:38:38.741Z,135
2018-02-23T13:39:48.538Z,135
2018-02-23T13:40:58.485Z,135
2018-02-23T13:42:08.212Z,135
2018-02-23T13:43:17.948Z,135
2018-02-23T13:44:27.531Z,135
2018-02-23T13:45:37.528Z,135
2018-02-23T13:46:47.588Z,135
2018-02-23T13:47:56.865Z,135
2018-02-23T13:49:06.620Z,135
2018-02-23T13:50:16.362Z,135
2018-02-23T13:51:25.862Z,135
2018-02-23T13:52:35.433Z,135
2018-02-23T13:53:45.456Z,135
2018-02-23T13:54:54.947Z,135
2018-02-23T13:56:04.679Z,135
2018-02-23T13:57:14.449Z,135
2018-02-23T13:58:24.443Z,135
2018-02-23T13:59:34.529Z,135
2018-02-23T14:00:44.006Z,135
2018-02-23T14:01:53.496Z,135
2018-02-23T14:03:03.235Z,135
2018-02-23T14:04:13.263Z,135
2018-02-23T14:05:22.479Z,135
2018-02-23T14:06:32.523Z,135
2018-02-23T14:07:41.992Z,135
2018-02-23T14:08:51.747Z,135
2018-02-23T14:10:01.539Z,135
2018-02-23T14:11:10.996Z,140
2018-02-23T14:12:20.723Z,135
2018-02-23T14:13:30.032Z,135
2018-02-23T14:14:39.582Z,135
2018-02-23T14:15:49.690Z,135
2018-02-23T14:16:59.696Z,135
2018-02-23T14:18:09.298Z,135
2018-02-23T14:19:19.205Z,135
2018-02-23T14:20:29.203Z,135
2018-02-23T14:21:38.935Z,135
2018-02-23T14:22:48.428Z,135
2018-02-23T14:23:58.427Z,135
2018-02-23T14:25:07.918Z,135
2018-02-23T14:26:16.846Z,135
2018-02-23T14:27:26.344Z,135
2018-02-23T14:28:35.637Z,135
2018-02-23T14:29:45.111Z,135
2018-02-23T14:30:54.838Z,135
2018-02-23T14:32:04.353Z,135
2018-02-23T14:33:14.094Z,135
2018-02-23T14:34:23.870Z,135
2018-02-23T14:35:33.642Z,135
2018-02-23T14:36:43.115Z,135
2018-02-23T14:37:52.843Z,135
2018-02-23T14:39:02.320Z,135
2018-02-23T14:40:11.812Z,130
2018-02-23T14:41:21.813Z,130
2018-02-23T14:42:31.539Z,130
2018-02-23T14:43:40.738Z,130
2018-02-23T14:44:50.753Z,130
2018-02-23T14:46:00.525Z,130
2018-02-23T14:47:10.044Z,125
2018-02-23T14:48:19.522Z,125
2018-02-23T14:49:29.023Z,125
2018-02-23T14:50:38.815Z,125
2018-02-23T14:51:48.024Z,125
2018-02-23T14:52:57.481Z,125
2018-02-23T14:54:06.934Z,125
2018-02-23T14:55:16.170Z,120
2018-02-23T14:56:25.901Z,120
2018-02-23T14:57:35.486Z,120
2018-02-23T14:58:44.952Z,120
2018-02-23T14:59:54.719Z,120
2018-02-23T15:01:04.516Z,120
2018-02-23T15:02:14.238Z,120
2018-02-23T15:03:23.996Z,115
2018-02-23T15:04:33.475Z,115
2018-02-23T15:05:42.932Z,115
2018-02-23T15:06:52.127Z,115
2018-02-23T15:08:01.600Z,115
2018-02-23T15:09:11.641Z,115
2018-02-23T15:10:21.390Z,115
2018-02-23T15:11:31.133Z,110
2018-02-23T15:12:40.614Z,110
2018-02-23T15:13:50.382Z,110
2018-02-23T15:14:59.882Z,110
2018-02-23T15:16:09.092Z,110
2018-02-23T15:17:18.293Z,110
2018-02-23T15:18:28.024Z,105
2018-02-23T15:19:37.770Z,105
2018-02-23T15:20:47.524Z,105
2018-02-23T15:21:57.360Z,105
2018-02-23T15:23:07.144Z,105
2018-02-23T15:24:17.174Z,100
2018-02-23T15:25:26.365Z,100
2018-02-23T15:26:36.092Z,100
2018-02-23T15:27:45.825Z,100
2018-02-23T15:28:55.563Z,100
2018-02-23T15:30:05.069Z,100
2018-02-23T15:31:14.601Z,95
2018-02-23T15:32:24.338Z,95
2018-02-23T15:33:34.061Z,95
2018-02-23T15:34:43.551Z,95
2018-02-23T15:35:53.274Z,95
2018-02-23T15:37:02.256Z,95
2018-02-23T15:38:11.446Z,95
2018-02-23T15:39:20.906Z,90
2018-02-23T15:40:30.667Z,90
2018-02-23T15:41:40.392Z,90
2018-02-23T15:42:50.128Z,90
2018-02-23T15:43:59.331Z,90
2018-02-23T15:45:08.522Z,85
2018-02-23T15:46:18.511Z,85
2018-02-23T15:47:28.247Z,85
2018-02-23T15:48:37.995Z,85
2018-02-23T15:49:47.742Z,80
2018-02-23T15:50:57.259Z,80
2018-02-23T15:52:07.099Z,80
2018-02-23T15:53:17.118Z,80
2018-02-23T15:54:26.580Z,80
2018-02-23T15:55:36.368Z,75
2018-02-23T15:56:45.560Z,75
2018-02-23T15:57:55.567Z,70
2018-02-23T15:59:04.804Z,70
2018-02-23T16:00:14.976Z,70
2018-02-23T16:01:25.033Z,70
2018-02-23T16:02:34.502Z,65
2018-02-23T16:03:44.317Z,65
2018-02-23T16:04:54.067Z,65
2018-02-23T16:06:03.800Z,65
2018-02-23T16:07:13.014Z,60
2018-02-23T16:08:23.026Z,60
2018-02-23T16:09:32.498Z,60
2018-02-23T16:10:41.726Z,60
2018-02-23T16:11:51.722Z,55
2018-02-23T16:13:01.184Z,55
2018-02-23T16:14:10.920Z,50
2018-02-23T16:15:20.656Z,50
2018-02-23T16:16:30.138Z,45
2018-02-23T16:17:39.649Z,45
2018-02-23T16:18:48.870Z,40
2018-02-23T16:19:58.649Z,35
2018-02-23T16:21:08.413Z,35
2018-02-23T16:22:17.876Z,35
2018-02-23T16:23:27.875Z,30
2018-02-23T16:24:37.663Z,30
2018-02-23T16:25:47.386Z,30
2018-02-23T16:26:57.135Z,30
2018-02-23T16:28:07.155Z,30
2018-02-23T16:29:16.465Z,30
2018-02-23T16:30:26.267Z,30
2018-02-23T16:31:36.001Z,30
2018-02-23T16:32:45.743Z,30
2018-02-23T16:33:55.203Z,30
2018-02-23T16:35:05.229Z,30
2018-02-23T16:36:14.996Z,30
2018-02-23T16:37:25.041Z,25